createdAt,value
2022-12-12T00:01:41.030Z,97615.48
2022-12-12T00:06:42.721Z,97612.07
2022-12-12T00:11:49.016Z,97607.09
2022-12-12T00:16:54.806Z,97610.77
2022-12-12T00:21:56.543Z,97612.67
2022-12-12T00:26:58.237Z,97607.42
2022-12-12T00:32:00.317Z,97611.72
2022-12-12T00:37:03.263Z,97615.31
2022-12-12T00:42:04.885Z,97615.58
2022-12-12T00:47:06.556Z,97616.23
2022-12-12T00:52:08.162Z,97615.45
2022-12-12T00:57:09.763Z,97619.76
2022-12-12T01:02:12.398Z,97615.34
2022-12-12T01:07:14.161Z,97617.73
2022-12-12T01:12:15.784Z,97618.19
2022-12-12T01:17:17.793Z,97622.23
2022-12-12T01:22:19.498Z,97613.66
2022-12-12T01:27:21.015Z,97612.56
2022-12-12T01:32:22.757Z,97609.73
2022-12-12T01:37:24.442Z,97606.29
2022-12-12T01:42:27.532Z,97603.11
2022-12-12T01:47:29.139Z,97598.61
2022-12-12T01:52:43.700Z,97597.77
2022-12-12T01:57:49.232Z,97591.87
2022-12-12T02:02:52.406Z,97592.84
2022-12-12T02:07:54.862Z,97591.55
2022-12-12T02:13:03.438Z,97585.91
2022-12-12T02:18:29.164Z,97586.57
2022-12-12T02:23:49.706Z,97591.05
2022-12-12T02:29:12.352Z,97589.20
2022-12-12T02:34:30.828Z,97586.13
2022-12-12T02:39:47.449Z,97588.78
2022-12-12T02:44:57.252Z,97593.05
2022-12-12T02:50:08.103Z,97585.55
2022-12-12T02:55:10.146Z,97586.48
2022-12-12T03:00:15.938Z,97585.00
2022-12-12T03:05:59.410Z,97590.63
2022-12-12T03:11:06.619Z,97586.96
2022-12-12T03:16:45.128Z,97586.15
2022-12-12T03:21:51.574Z,97589.63
2022-12-12T03:27:22.415Z,97588.92
2022-12-12T03:32:30.669Z,97594.90
2022-12-12T03:37:41.060Z,97593.08
2022-12-12T03:42:49.374Z,97592.34
2022-12-12T03:48:04.272Z,97591.04
2022-12-12T03:53:12.211Z,97591.96
2022-12-12T03:58:20.977Z,97589.27
2022-12-12T04:03:45.793Z,97587.06
2022-12-12T04:09:06.490Z,97582.91
2022-12-12T04:14:30.193Z,97585.00
2022-12-12T04:20:14.905Z,97585.64
2022-12-12T04:25:31.244Z,97581.92
2022-12-12T04:30:34.950Z,97583.73
2022-12-12T04:35:41.356Z,97584.45
2022-12-12T04:40:45.154Z,97583.73
2022-12-12T04:45:51.658Z,97583.77
2022-12-12T04:50:53.714Z,97580.45
2022-12-12T04:55:58.537Z,97576.48
2022-12-12T05:01:13.359Z,97579.73
2022-12-12T05:06:20.150Z,97585.71
2022-12-12T05:11:22.478Z,97580.07
2022-12-12T05:16:32.647Z,97580.42
2022-12-12T05:21:34.365Z,97577.55
2022-12-12T05:26:36.652Z,97579.47
2022-12-12T05:31:38.345Z,97578.02
2022-12-12T05:36:39.920Z,97579.80
2022-12-12T05:41:41.830Z,97582.95
2022-12-12T05:46:43.532Z,97585.77
2022-12-12T05:51:45.114Z,97584.98
2022-12-12T05:56:46.720Z,97590.93
2022-12-12T06:01:48.416Z,97594.34
2022-12-12T06:06:50.078Z,97590.45
2022-12-12T06:11:51.589Z,97595.69
2022-12-12T06:16:53.281Z,97600.41
2022-12-12T06:21:54.860Z,97606.25
2022-12-12T06:26:56.532Z,97610.19
2022-12-12T06:31:58.244Z,97614.73
2022-12-12T06:37:04.422Z,97619.59
2022-12-12T06:42:06.046Z,97617.89
2022-12-12T06:47:07.587Z,97619.27
2022-12-12T06:52:09.342Z,97622.98
2022-12-12T06:57:10.969Z,97628.98
2022-12-12T07:02:12.558Z,97629.42
2022-12-12T07:07:15.320Z,97638.55
2022-12-12T07:12:17.296Z,97636.39
2022-12-12T07:17:18.939Z,97642.77
2022-12-12T07:22:20.728Z,97645.90
2022-12-12T07:27:22.258Z,97646.21
2022-12-12T07:32:23.871Z,97643.55
2022-12-12T07:37:25.511Z,97647.48
2022-12-12T07:42:27.264Z,97651.70
2022-12-12T07:47:28.861Z,97652.95
2022-12-12T07:52:30.478Z,97647.53
2022-12-12T07:57:32.282Z,97648.70
2022-12-12T08:02:34.050Z,97649.77
2022-12-12T08:07:35.693Z,97648.32
2022-12-12T08:12:37.521Z,97653.27
2022-12-12T08:17:39.330Z,97651.59
2022-12-12T08:22:41.256Z,97652.63
2022-12-12T08:27:43.100Z,97658.63
2022-12-12T08:32:44.804Z,97658.65
2022-12-12T08:37:46.792Z,97651.98
2022-12-12T08:42:48.575Z,97656.88
2022-12-12T08:47:50.327Z,97659.34
2022-12-12T08:52:52.035Z,97663.98
2022-12-12T08:57:53.727Z,97668.58
2022-12-12T09:02:55.647Z,97667.94
2022-12-12T09:07:59.625Z,97665.99
2022-12-12T09:13:01.645Z,97667.14
2022-12-12T09:18:03.959Z,97670.85
2022-12-12T09:23:05.637Z,97669.91
2022-12-12T09:28:08.181Z,97669.96
2022-12-12T09:33:10.780Z,97669.71
2022-12-12T09:38:14.640Z,97669.92
2022-12-12T09:43:19.219Z,97665.54
2022-12-12T09:48:26.545Z,97667.80
2022-12-12T09:53:28.625Z,97667.10
2022-12-12T09:58:36.467Z,97667.34
2022-12-12T10:03:50.897Z,97668.44
2022-12-12T10:08:58.906Z,97668.89
2022-12-12T10:14:01.683Z,97670.09
2022-12-12T10:19:08.743Z,97671.46
2022-12-12T10:24:29.986Z,97670.82
2022-12-12T10:29:33.538Z,97667.01
2022-12-12T10:34:41.526Z,97669.14
2022-12-12T10:39:51.219Z,97666.63
2022-12-12T10:45:22.348Z,97667.46
2022-12-12T10:50:28.448Z,97663.71
2022-12-12T10:55:37.156Z,97661.27
2022-12-12T11:00:40.570Z,97658.65
2022-12-12T11:05:42.304Z,97660.52
2022-12-12T11:10:44.354Z,97662.77
2022-12-12T11:15:50.482Z,97660.75
2022-12-12T11:21:11.827Z,97654.16
2022-12-12T11:26:28.339Z,97655.73
2022-12-12T11:36:49.648Z,97652.97
2022-12-12T11:42:03.500Z,97652.48
2022-12-12T11:47:26.983Z,97655.38
2022-12-12T11:52:31.457Z,97655.86
2022-12-12T11:57:41.535Z,97653.95
2022-12-12T12:03:08.381Z,97657.42
2022-12-12T12:08:24.118Z,97660.83
2022-12-12T12:13:42.499Z,97664.98
2022-12-12T12:19:08.378Z,97673.73
2022-12-12T12:24:28.354Z,97676.26
2022-12-12T12:29:48.365Z,97678.67
2022-12-12T12:35:08.816Z,97677.11
2022-12-12T12:40:31.712Z,97676.42
2022-12-12T12:45:49.323Z,97674.36
2022-12-12T12:51:10.692Z,97677.05
2022-12-12T12:56:27.999Z,97681.89
2022-12-12T13:01:38.762Z,97683.96
2022-12-12T13:06:47.161Z,97688.20
2022-12-12T13:11:53.200Z,97697.19
2022-12-12T13:16:56.189Z,97697.67
2022-12-12T13:22:07.890Z,97700.52
2022-12-12T13:27:23.594Z,97696.41
2022-12-12T13:32:45.350Z,97705.52
2022-12-12T13:37:48.285Z,97708.11
2022-12-12T13:43:07.251Z,97720.01
2022-12-12T13:48:27.088Z,97724.92
2022-12-12T13:53:28.889Z,97729.09
2022-12-12T13:58:34.983Z,97736.09
2022-12-12T14:03:37.105Z,97735.96
2022-12-12T14:08:48.924Z,97736.12
2022-12-12T14:13:51.441Z,97749.70
2022-12-12T14:19:00.145Z,97754.65
2022-12-12T14:24:34.155Z,97758.64
2022-12-12T14:29:43.748Z,97764.15
2022-12-12T14:35:06.834Z,97770.40
2022-12-12T14:40:30.449Z,97768.16
2022-12-12T14:45:39.443Z,97769.27
2022-12-12T14:50:46.800Z,97774.52
2022-12-12T14:55:56.977Z,97778.85
2022-12-12T15:01:01.702Z,97778.73
2022-12-12T15:06:20.451Z,97783.77
2022-12-12T15:11:30.455Z,97785.23
2022-12-12T15:16:50.351Z,97791.87
2022-12-12T15:21:52.598Z,97799.08
2022-12-12T15:26:57.335Z,97802.77
2022-12-12T15:32:02.572Z,97805.23
2022-12-12T15:37:20.545Z,97810.16
2022-12-12T15:42:22.493Z,97812.50
2022-12-12T15:47:24.120Z,97818.36
2022-12-12T15:52:27.178Z,97820.63
2022-12-12T15:57:32.696Z,97824.86
2022-12-12T16:02:38.361Z,97832.08
2022-12-12T16:07:40.819Z,97834.49
2022-12-12T16:13:00.601Z,97836.05
2022-12-12T16:18:17.572Z,97840.29
2022-12-12T16:23:30.662Z,97842.13
2022-12-12T16:28:32.317Z,97848.22
2022-12-12T16:33:38.517Z,97850.71
2022-12-12T16:38:41.459Z,97856.35
2022-12-12T16:43:43.879Z,97859.30
2022-12-12T16:48:46.121Z,97862.59
2022-12-12T16:53:47.948Z,97870.36
2022-12-12T16:58:50.594Z,97878.95
2022-12-12T17:03:52.389Z,97880.27
2022-12-12T17:08:54.188Z,97885.84
2022-12-12T17:13:55.939Z,97891.87
2022-12-12T17:18:58.550Z,97899.53
2022-12-12T17:24:00.321Z,97903.81
2022-12-12T17:29:02.838Z,97911.71
2022-12-12T17:34:05.511Z,97914.91
2022-12-12T17:39:07.929Z,97921.16
2022-12-12T17:44:09.601Z,97924.33
2022-12-12T17:49:11.399Z,97927.02
2022-12-12T17:54:13.306Z,97932.64
2022-12-12T17:59:16.416Z,97936.88
2022-12-12T18:04:20.810Z,97937.25
2022-12-12T18:09:23.687Z,97946.95
2022-12-12T18:14:25.367Z,97950.42
2022-12-12T18:19:28.981Z,97950.57
2022-12-12T18:24:32.537Z,97954.68
2022-12-12T18:29:34.162Z,97957.21
2022-12-12T18:34:36.130Z,97958.33
2022-12-12T18:39:37.686Z,97962.91
2022-12-12T18:44:39.298Z,97966.20
2022-12-12T18:49:40.995Z,97981.63
2022-12-12T18:54:42.620Z,97986.30
2022-12-12T18:59:44.276Z,97995.95
2022-12-12T19:04:47.671Z,98001.80
2022-12-12T19:09:49.267Z,98004.71
2022-12-12T19:20:13.025Z,98024.00
2022-12-12T19:25:16.281Z,98030.34
2022-12-12T19:30:18.475Z,98032.97
2022-12-12T19:35:20.437Z,98035.70
2022-12-12T19:40:22.099Z,98045.50
2022-12-12T19:45:23.636Z,98055.39
2022-12-12T19:50:25.432Z,98064.39
2022-12-12T19:55:27.263Z,98065.89
2022-12-12T20:00:28.871Z,98072.97
2022-12-12T20:05:30.410Z,98079.34
2022-12-12T20:10:35.728Z,98082.54
2022-12-12T20:15:38.745Z,98082.38
2022-12-12T20:20:40.333Z,98088.45
2022-12-12T20:25:42.770Z,98093.52
2022-12-12T20:30:44.402Z,98101.02
2022-12-12T20:35:47.178Z,98109.00
2022-12-12T20:40:49.161Z,98112.86
2022-12-12T20:45:51.109Z,98116.13
2022-12-12T20:50:54.973Z,98121.05
2022-12-12T20:56:05.192Z,98124.70
2022-12-12T21:01:17.868Z,98124.52
2022-12-12T21:06:21.677Z,98132.16
2022-12-12T21:11:56.219Z,98141.14
2022-12-12T21:16:58.024Z,98158.85
2022-12-12T21:21:59.678Z,98162.49
2022-12-12T21:27:01.307Z,98168.84
2022-12-12T21:32:03.465Z,98172.64
2022-12-12T21:37:05.097Z,98173.66
2022-12-12T21:42:06.658Z,98180.48
2022-12-12T21:47:08.321Z,98180.61
2022-12-12T21:52:11.844Z,98183.23
2022-12-12T21:57:13.587Z,98197.05
2022-12-12T22:02:15.483Z,98207.88
2022-12-12T22:07:19.224Z,98213.73
2022-12-12T22:12:22.888Z,98215.43
2022-12-12T22:17:24.508Z,98209.80
2022-12-12T22:22:26.657Z,98209.43
2022-12-12T22:27:28.278Z,98211.91
2022-12-12T22:32:31.020Z,98222.13
2022-12-12T22:37:32.512Z,98221.56
2022-12-12T22:42:34.107Z,98226.02
2022-12-12T22:47:35.841Z,98234.34
2022-12-12T22:52:37.493Z,98238.38
2022-12-12T22:57:39.017Z,98243.98
2022-12-12T23:02:40.650Z,98250.45
2022-12-12T23:07:43.245Z,98256.10
2022-12-12T23:12:44.845Z,98257.14
2022-12-12T23:17:46.353Z,98253.94
2022-12-12T23:22:47.987Z,98256.73
2022-12-12T23:27:49.540Z,98259.31
2022-12-12T23:32:51.148Z,98259.81
2022-12-12T23:37:52.781Z,98254.39
2022-12-12T23:42:54.472Z,98256.52
2022-12-12T23:47:56.004Z,98255.33
2022-12-12T23:52:58.718Z,98253.98
2022-12-12T23:58:00.318Z,98255.56
